sensor_id;sensor_type;location;lat;lon;timestamp;P1;durP1;ratioP1;P2;durP2;ratioP2
52186;SDS011;38161;53.020;6.598;2023-07-02T00:00:03;18.25;;;16.60;;
52186;SDS011;38161;53.020;6.598;2023-07-02T00:02:30;18.15;;;15.43;;
52186;SDS011;38161;53.020;6.598;2023-07-02T00:04:56;17.27;;;14.50;;
52186;SDS011;38161;53.020;6.598;2023-07-02T00:07:23;16.60;;;15.02;;
52186;SDS011;38161;53.020;6.598;2023-07-02T00:09:51;17.25;;;14.75;;
52186;SDS011;38161;53.020;6.598;2023-07-02T00:14:44;19.85;;;12.68;;
52186;SDS011;38161;53.020;6.598;2023-07-02T00:17:10;21.65;;;14.55;;
52186;SDS011;38161;53.020;6.598;2023-07-02T00:19:45;15.93;;;14.25;;
52186;SDS011;38161;53.020;6.598;2023-07-02T00:22:14;22.02;;;14.73;;
52186;SDS011;38161;53.020;6.598;2023-07-02T00:24:41;19.73;;;15.75;;
52186;SDS011;38161;53.020;6.598;2023-07-02T00:27:14;23.30;;;15.50;;
52186;SDS011;38161;53.020;6.598;2023-07-02T00:29:41;21.25;;;16.48;;
52186;SDS011;38161;53.020;6.598;2023-07-02T00:32:10;21.42;;;15.05;;
52186;SDS011;38161;53.020;6.598;2023-07-02T00:34:36;27.67;;;16.10;;
52186;SDS011;38161;53.020;6.598;2023-07-02T00:37:03;30.48;;;15.70;;
52186;SDS011;38161;53.020;6.598;2023-07-02T00:39:29;21.63;;;15.82;;
52186;SDS011;38161;53.020;6.598;2023-07-02T00:42:01;26.42;;;16.58;;
52186;SDS011;38161;53.020;6.598;2023-07-02T00:44:33;18.45;;;14.85;;
52186;SDS011;38161;53.020;6.598;2023-07-02T00:47:16;21.92;;;14.10;;
52186;SDS011;38161;53.020;6.598;2023-07-02T00:49:45;20.38;;;14.77;;
52186;SDS011;38161;53.020;6.598;2023-07-02T00:52:16;19.30;;;15.13;;
52186;SDS011;38161;53.020;6.598;2023-07-02T00:54:45;24.45;;;15.90;;
52186;SDS011;38161;53.020;6.598;2023-07-02T00:57:11;20.05;;;14.88;;
52186;SDS011;38161;53.020;6.598;2023-07-02T00:59:41;17.95;;;14.23;;
52186;SDS011;38161;53.020;6.598;2023-07-02T01:02:07;22.48;;;14.38;;
52186;SDS011;38161;53.020;6.598;2023-07-02T01:04:33;22.85;;;15.63;;
52186;SDS011;38161;53.020;6.598;2023-07-02T01:06:59;21.13;;;14.63;;
52186;SDS011;38161;53.020;6.598;2023-07-02T01:09:25;25.15;;;17.70;;
52186;SDS011;38161;53.020;6.598;2023-07-02T01:11:54;27.00;;;14.18;;
52186;SDS011;38161;53.020;6.598;2023-07-02T01:15:10;22.00;;;14.90;;
52186;SDS011;38161;53.020;6.598;2023-07-02T01:17:54;23.95;;;14.77;;
52186;SDS011;38161;53.020;6.598;2023-07-02T01:20:28;21.77;;;14.77;;
52186;SDS011;38161;53.020;6.598;2023-07-02T01:22:58;24.98;;;15.00;;
52186;SDS011;38161;53.020;6.598;2023-07-02T01:25:39;20.30;;;15.00;;
52186;SDS011;38161;53.020;6.598;2023-07-02T01:28:08;22.25;;;15.50;;
52186;SDS011;38161;53.020;6.598;2023-07-02T01:30:41;20.83;;;14.65;;
52186;SDS011;38161;53.020;6.598;2023-07-02T01:33:08;25.85;;;14.93;;
52186;SDS011;38161;53.020;6.598;2023-07-02T01:35:41;21.15;;;13.63;;
52186;SDS011;38161;53.020;6.598;2023-07-02T01:38:42;30.20;;;14.35;;
52186;SDS011;38161;53.020;6.598;2023-07-02T01:41:09;22.80;;;14.02;;
52186;SDS011;38161;53.020;6.598;2023-07-02T01:43:49;22.65;;;14.52;;
52186;SDS011;38161;53.020;6.598;2023-07-02T01:46:17;22.38;;;15.38;;
52186;SDS011;38161;53.020;6.598;2023-07-02T01:48:43;27.48;;;15.77;;
52186;SDS011;38161;53.020;6.598;2023-07-02T01:51:16;24.73;;;14.27;;
52186;SDS011;38161;53.020;6.598;2023-07-02T01:53:42;22.90;;;13.65;;
52186;SDS011;38161;53.020;6.598;2023-07-02T01:56:16;28.45;;;14.45;;
52186;SDS011;38161;53.020;6.598;2023-07-02T01:58:45;27.60;;;15.60;;
52186;SDS011;38161;53.020;6.598;2023-07-02T02:01:11;22.35;;;14.68;;
52186;SDS011;38161;53.020;6.598;2023-07-02T02:03:39;20.23;;;14.63;;
52186;SDS011;38161;53.020;6.598;2023-07-02T02:06:05;27.52;;;14.88;;
52186;SDS011;38161;53.020;6.598;2023-07-02T02:08:31;22.30;;;15.73;;
52186;SDS011;38161;53.020;6.598;2023-07-02T02:10:57;25.65;;;15.70;;
52186;SDS011;38161;53.020;6.598;2023-07-02T02:13:24;28.08;;;15.75;;
52186;SDS011;38161;53.020;6.598;2023-07-02T02:15:50;30.77;;;14.98;;
52186;SDS011;38161;53.020;6.598;2023-07-02T02:18:16;20.98;;;14.98;;
52186;SDS011;38161;53.020;6.598;2023-07-02T02:20:43;23.92;;;14.70;;
52186;SDS011;38161;53.020;6.598;2023-07-02T02:23:13;28.98;;;14.90;;
52186;SDS011;38161;53.020;6.598;2023-07-02T02:25:42;24.55;;;15.10;;
52186;SDS011;38161;53.020;6.598;2023-07-02T02:28:08;22.88;;;14.05;;
52186;SDS011;38161;53.020;6.598;2023-07-02T02:30:34;22.27;;;15.20;;
52186;SDS011;38161;53.020;6.598;2023-07-02T02:35:31;26.25;;;13.52;;
52186;SDS011;38161;53.020;6.598;2023-07-02T02:37:57;21.67;;;13.77;;
52186;SDS011;38161;53.020;6.598;2023-07-02T02:40:26;25.85;;;14.70;;
52186;SDS011;38161;53.020;6.598;2023-07-02T02:42:52;22.55;;;14.07;;
52186;SDS011;38161;53.020;6.598;2023-07-02T02:45:18;27.55;;;15.70;;
52186;SDS011;38161;53.020;6.598;2023-07-02T02:47:45;23.13;;;13.65;;
52186;SDS011;38161;53.020;6.598;2023-07-02T02:50:17;23.88;;;15.50;;
52186;SDS011;38161;53.020;6.598;2023-07-02T02:52:43;22.27;;;14.02;;
52186;SDS011;38161;53.020;6.598;2023-07-02T02:55:09;22.90;;;14.63;;
52186;SDS011;38161;53.020;6.598;2023-07-02T02:57:38;24.67;;;15.20;;
52186;SDS011;38161;53.020;6.598;2023-07-02T03:00:04;28.73;;;14.13;;
52186;SDS011;38161;53.020;6.598;2023-07-02T03:02:34;22.40;;;13.60;;
52186;SDS011;38161;53.020;6.598;2023-07-02T03:05:04;28.13;;;14.85;;
52186;SDS011;38161;53.020;6.598;2023-07-02T03:07:32;22.02;;;14.43;;
52186;SDS011;38161;53.020;6.598;2023-07-02T03:09:58;27.95;;;14.35;;
52186;SDS011;38161;53.020;6.598;2023-07-02T03:12:27;24.23;;;14.45;;
52186;SDS011;38161;53.020;6.598;2023-07-02T03:14:59;20.67;;;14.13;;
52186;SDS011;38161;53.020;6.598;2023-07-02T03:17:29;26.73;;;14.25;;
52186;SDS011;38161;53.020;6.598;2023-07-02T03:20:00;26.70;;;14.18;;
52186;SDS011;38161;53.020;6.598;2023-07-02T03:22:29;22.60;;;14.38;;
52186;SDS011;38161;53.020;6.598;2023-07-02T03:24:58;31.15;;;14.73;;
52186;SDS011;38161;53.020;6.598;2023-07-02T03:27:25;25.05;;;13.32;;
52186;SDS011;38161;53.020;6.598;2023-07-02T03:30:00;23.70;;;13.80;;
52186;SDS011;38161;53.020;6.598;2023-07-02T03:32:32;28.67;;;15.48;;
52186;SDS011;38161;53.020;6.598;2023-07-02T03:35:04;23.45;;;14.30;;
52186;SDS011;38161;53.020;6.598;2023-07-02T03:37:33;29.80;;;14.35;;
52186;SDS011;38161;53.020;6.598;2023-07-02T03:40:31;24.83;;;13.90;;
52186;SDS011;38161;53.020;6.598;2023-07-02T03:42:57;23.90;;;13.23;;
52186;SDS011;38161;53.020;6.598;2023-07-02T03:45:27;25.65;;;13.65;;
52186;SDS011;38161;53.020;6.598;2023-07-02T03:47:59;26.65;;;13.75;;
52186;SDS011;38161;53.020;6.598;2023-07-02T03:50:26;24.25;;;14.48;;
52186;SDS011;38161;53.020;6.598;2023-07-02T03:53:02;24.52;;;14.95;;
52186;SDS011;38161;53.020;6.598;2023-07-02T03:55:33;25.75;;;14.50;;
52186;SDS011;38161;53.020;6.598;2023-07-02T03:57:59;29.63;;;15.95;;
52186;SDS011;38161;53.020;6.598;2023-07-02T04:00:49;23.38;;;14.30;;
52186;SDS011;38161;53.020;6.598;2023-07-02T04:03:16;24.55;;;15.00;;
52186;SDS011;38161;53.020;6.598;2023-07-02T04:05:51;22.35;;;15.25;;
52186;SDS011;38161;53.020;6.598;2023-07-02T04:08:17;25.30;;;15.10;;
52186;SDS011;38161;53.020;6.598;2023-07-02T04:10:49;21.55;;;13.98;;
52186;SDS011;38161;53.020;6.598;2023-07-02T04:13:18;25.75;;;14.57;;
52186;SDS011;38161;53.020;6.598;2023-07-02T04:15:49;26.83;;;14.30;;
52186;SDS011;38161;53.020;6.598;2023-07-02T04:18:19;28.05;;;14.70;;
52186;SDS011;38161;53.020;6.598;2023-07-02T04:20:45;24.10;;;14.55;;
52186;SDS011;38161;53.020;6.598;2023-07-02T04:23:11;24.63;;;15.02;;
52186;SDS011;38161;53.020;6.598;2023-07-02T04:28:03;24.98;;;12.80;;
52186;SDS011;38161;53.020;6.598;2023-07-02T04:30:29;22.42;;;13.52;;
52186;SDS011;38161;53.020;6.598;2023-07-02T04:32:55;28.30;;;15.77;;
52186;SDS011;38161;53.020;6.598;2023-07-02T04:35:21;31.88;;;14.80;;
52186;SDS011;38161;53.020;6.598;2023-07-02T04:38:29;22.60;;;14.15;;
52186;SDS011;38161;53.020;6.598;2023-07-02T04:40:37;28.90;;;13.88;;
52186;SDS011;38161;53.020;6.598;2023-07-02T04:43:09;23.88;;;15.13;;
52186;SDS011;38161;53.020;6.598;2023-07-02T04:45:36;24.52;;;14.45;;
52186;SDS011;38161;53.020;6.598;2023-07-02T04:48:21;21.25;;;14.30;;
52186;SDS011;38161;53.020;6.598;2023-07-02T04:50:57;24.38;;;13.68;;
52186;SDS011;38161;53.020;6.598;2023-07-02T04:53:23;20.17;;;13.90;;
52186;SDS011;38161;53.020;6.598;2023-07-02T04:55:49;28.75;;;14.80;;
52186;SDS011;38161;53.020;6.598;2023-07-02T04:58:15;26.38;;;14.35;;
52186;SDS011;38161;53.020;6.598;2023-07-02T05:00:48;30.17;;;15.23;;
52186;SDS011;38161;53.020;6.598;2023-07-02T05:03:18;22.80;;;13.90;;
52186;SDS011;38161;53.020;6.598;2023-07-02T05:05:53;21.73;;;13.75;;
52186;SDS011;38161;53.020;6.598;2023-07-02T05:08:19;27.48;;;13.90;;
52186;SDS011;38161;53.020;6.598;2023-07-02T05:10:50;22.08;;;14.23;;
52186;SDS011;38161;53.020;6.598;2023-07-02T05:13:36;23.55;;;14.07;;
52186;SDS011;38161;53.020;6.598;2023-07-02T05:16:05;23.33;;;13.05;;
52186;SDS011;38161;53.020;6.598;2023-07-02T05:18:31;31.40;;;14.88;;
52186;SDS011;38161;53.020;6.598;2023-07-02T05:20:57;22.38;;;14.52;;
52186;SDS011;38161;53.020;6.598;2023-07-02T05:23:25;24.98;;;13.80;;
52186;SDS011;38161;53.020;6.598;2023-07-02T05:25:56;18.50;;;13.50;;
52186;SDS011;38161;53.020;6.598;2023-07-02T05:28:27;22.42;;;15.13;;
52186;SDS011;38161;53.020;6.598;2023-07-02T05:31:03;17.73;;;12.40;;
52186;SDS011;38161;53.020;6.598;2023-07-02T05:33:29;21.98;;;13.60;;
52186;SDS011;38161;53.020;6.598;2023-07-02T05:35:57;24.73;;;13.82;;
52186;SDS011;38161;53.020;6.598;2023-07-02T05:40:52;22.83;;;12.13;;
52186;SDS011;38161;53.020;6.598;2023-07-02T05:43:23;20.42;;;11.70;;
52186;SDS011;38161;53.020;6.598;2023-07-02T05:45:50;29.23;;;12.77;;
52186;SDS011;38161;53.020;6.598;2023-07-02T05:48:18;18.92;;;12.35;;
52186;SDS011;38161;53.020;6.598;2023-07-02T05:50:44;24.25;;;14.57;;
52186;SDS011;38161;53.020;6.598;2023-07-02T05:53:12;22.52;;;14.07;;
52186;SDS011;38161;53.020;6.598;2023-07-02T05:55:47;17.80;;;13.37;;
52186;SDS011;38161;53.020;6.598;2023-07-02T06:00:39;18.83;;;11.32;;
52186;SDS011;38161;53.020;6.598;2023-07-02T06:03:09;17.08;;;11.82;;
52186;SDS011;38161;53.020;6.598;2023-07-02T06:05:35;18.23;;;12.30;;
52186;SDS011;38161;53.020;6.598;2023-07-02T06:08:02;17.27;;;12.25;;
52186;SDS011;38161;53.020;6.598;2023-07-02T06:10:31;19.60;;;12.40;;
52186;SDS011;38161;53.020;6.598;2023-07-02T06:12:58;16.13;;;11.70;;
52186;SDS011;38161;53.020;6.598;2023-07-02T06:15:25;19.75;;;12.23;;
52186;SDS011;38161;53.020;6.598;2023-07-02T06:17:56;20.55;;;11.63;;
52186;SDS011;38161;53.020;6.598;2023-07-02T06:20:23;21.60;;;13.60;;
52186;SDS011;38161;53.020;6.598;2023-07-02T06:22:51;22.67;;;13.68;;
52186;SDS011;38161;53.020;6.598;2023-07-02T06:25:24;20.58;;;12.40;;
52186;SDS011;38161;53.020;6.598;2023-07-02T06:27:52;23.23;;;12.85;;
52186;SDS011;38161;53.020;6.598;2023-07-02T06:30:24;21.48;;;12.48;;
52186;SDS011;38161;53.020;6.598;2023-07-02T06:32:55;21.38;;;12.43;;
52186;SDS011;38161;53.020;6.598;2023-07-02T06:35:23;21.13;;;13.48;;
52186;SDS011;38161;53.020;6.598;2023-07-02T06:37:50;21.65;;;12.90;;
52186;SDS011;38161;53.020;6.598;2023-07-02T06:40:20;17.48;;;12.80;;
52186;SDS011;38161;53.020;6.598;2023-07-02T06:42:50;18.23;;;12.98;;
52186;SDS011;38161;53.020;6.598;2023-07-02T06:45:18;17.40;;;12.63;;
52186;SDS011;38161;53.020;6.598;2023-07-02T06:47:45;16.95;;;12.05;;
52186;SDS011;38161;53.020;6.598;2023-07-02T06:50:12;19.08;;;12.98;;
52186;SDS011;38161;53.020;6.598;2023-07-02T06:52:43;16.73;;;12.70;;
52186;SDS011;38161;53.020;6.598;2023-07-02T06:55:10;20.83;;;13.60;;
52186;SDS011;38161;53.020;6.598;2023-07-02T06:57:43;18.45;;;13.10;;
52186;SDS011;38161;53.020;6.598;2023-07-02T07:00:11;18.85;;;12.73;;
52186;SDS011;38161;53.020;6.598;2023-07-02T07:02:41;15.55;;;12.25;;
52186;SDS011;38161;53.020;6.598;2023-07-02T07:07:33;20.58;;;12.27;;
52186;SDS011;38161;53.020;6.598;2023-07-02T07:10:00;19.92;;;11.98;;
52186;SDS011;38161;53.020;6.598;2023-07-02T07:15:05;18.80;;;10.82;;
52186;SDS011;38161;53.020;6.598;2023-07-02T07:17:33;15.77;;;11.60;;
52186;SDS011;38161;53.020;6.598;2023-07-02T07:20:02;15.43;;;13.70;;
52186;SDS011;38161;53.020;6.598;2023-07-02T07:22:30;12.60;;;10.55;;
52186;SDS011;38161;53.020;6.598;2023-07-02T07:25:02;13.70;;;10.43;;
52186;SDS011;38161;53.020;6.598;2023-07-02T07:27:29;13.63;;;10.65;;
52186;SDS011;38161;53.020;6.598;2023-07-02T07:29:58;22.88;;;13.52;;
52186;SDS011;38161;53.020;6.598;2023-07-02T07:32:27;16.48;;;11.90;;
52186;SDS011;38161;53.020;6.598;2023-07-02T07:34:54;12.35;;;10.80;;
52186;SDS011;38161;53.020;6.598;2023-07-02T07:37:23;16.45;;;11.10;;
52186;SDS011;38161;53.020;6.598;2023-07-02T07:39:51;14.10;;;11.40;;
52186;SDS011;38161;53.020;6.598;2023-07-02T07:42:25;15.05;;;10.55;;
52186;SDS011;38161;53.020;6.598;2023-07-02T07:44:51;12.48;;;10.90;;
52186;SDS011;38161;53.020;6.598;2023-07-02T07:47:25;13.48;;;11.70;;
52186;SDS011;38161;53.020;6.598;2023-07-02T07:49:55;14.50;;;12.68;;
52186;SDS011;38161;53.020;6.598;2023-07-02T07:52:41;11.73;;;10.60;;
52186;SDS011;38161;53.020;6.598;2023-07-02T07:55:08;12.60;;;11.20;;
52186;SDS011;38161;53.020;6.598;2023-07-02T07:57:35;11.88;;;10.77;;
52186;SDS011;38161;53.020;6.598;2023-07-02T08:00:03;12.50;;;11.18;;
52186;SDS011;38161;53.020;6.598;2023-07-02T08:02:40;13.85;;;11.30;;
52186;SDS011;38161;53.020;6.598;2023-07-02T08:05:09;12.18;;;10.95;;
52186;SDS011;38161;53.020;6.598;2023-07-02T08:07:35;12.48;;;10.80;;
52186;SDS011;38161;53.020;6.598;2023-07-02T08:10:03;14.98;;;13.35;;
52186;SDS011;38161;53.020;6.598;2023-07-02T08:12:30;14.70;;;13.13;;
52186;SDS011;38161;53.020;6.598;2023-07-02T08:14:56;15.52;;;13.98;;
52186;SDS011;38161;53.020;6.598;2023-07-02T08:17:29;15.73;;;14.13;;
52186;SDS011;38161;53.020;6.598;2023-07-02T08:19:57;16.27;;;13.15;;
52186;SDS011;38161;53.020;6.598;2023-07-02T08:22:23;15.23;;;13.27;;
52186;SDS011;38161;53.020;6.598;2023-07-02T08:24:50;13.90;;;12.60;;
52186;SDS011;38161;53.020;6.598;2023-07-02T08:27:19;14.45;;;12.93;;
52186;SDS011;38161;53.020;6.598;2023-07-02T08:29:49;16.45;;;12.80;;
52186;SDS011;38161;53.020;6.598;2023-07-02T08:32:15;14.85;;;12.77;;
52186;SDS011;38161;53.020;6.598;2023-07-02T08:34:41;17.50;;;12.75;;
52186;SDS011;38161;53.020;6.598;2023-07-02T08:37:07;14.20;;;11.73;;
52186;SDS011;38161;53.020;6.598;2023-07-02T08:39:34;15.43;;;13.82;;
52186;SDS011;38161;53.020;6.598;2023-07-02T08:42:02;14.80;;;12.90;;
52186;SDS011;38161;53.020;6.598;2023-07-02T08:44:29;14.02;;;12.73;;
52186;SDS011;38161;53.020;6.598;2023-07-02T08:46:55;14.20;;;11.32;;
52186;SDS011;38161;53.020;6.598;2023-07-02T08:49:23;14.73;;;12.77;;
52186;SDS011;38161;53.020;6.598;2023-07-02T08:51:54;16.08;;;14.63;;
52186;SDS011;38161;53.020;6.598;2023-07-02T08:54:29;15.07;;;13.23;;
52186;SDS011;38161;53.020;6.598;2023-07-02T08:57:29;15.07;;;13.00;;
52186;SDS011;38161;53.020;6.598;2023-07-02T09:00:00;26.05;;;13.68;;
52186;SDS011;38161;53.020;6.598;2023-07-02T09:02:45;17.88;;;12.45;;
52186;SDS011;38161;53.020;6.598;2023-07-02T09:05:12;14.95;;;13.40;;
52186;SDS011;38161;53.020;6.598;2023-07-02T09:07:47;15.85;;;13.40;;
52186;SDS011;38161;53.020;6.598;2023-07-02T09:10:28;16.65;;;14.45;;
52186;SDS011;38161;53.020;6.598;2023-07-02T09:15:48;15.63;;;13.88;;
52186;SDS011;38161;53.020;6.598;2023-07-02T09:18:17;17.55;;;13.80;;
52186;SDS011;38161;53.020;6.598;2023-07-02T09:20:45;18.08;;;14.75;;
52186;SDS011;38161;53.020;6.598;2023-07-02T09:25:38;14.80;;;12.50;;
52186;SDS011;38161;53.020;6.598;2023-07-02T09:28:18;16.45;;;15.00;;
52186;SDS011;38161;53.020;6.598;2023-07-02T09:30:56;16.60;;;14.43;;
52186;SDS011;38161;53.020;6.598;2023-07-02T09:33:29;17.10;;;15.43;;
52186;SDS011;38161;53.020;6.598;2023-07-02T09:35:56;18.17;;;16.33;;
52186;SDS011;38161;53.020;6.598;2023-07-02T09:38:22;19.77;;;17.77;;
52186;SDS011;38161;53.020;6.598;2023-07-02T09:40:50;21.33;;;17.90;;
52186;SDS011;38161;53.020;6.598;2023-07-02T09:43:21;19.08;;;16.67;;
52186;SDS011;38161;53.020;6.598;2023-07-02T09:45:53;18.88;;;15.43;;
52186;SDS011;38161;53.020;6.598;2023-07-02T09:48:24;18.90;;;15.73;;
52186;SDS011;38161;53.020;6.598;2023-07-02T09:51:00;20.65;;;16.50;;
52186;SDS011;38161;53.020;6.598;2023-07-02T09:53:28;19.35;;;17.63;;
52186;SDS011;38161;53.020;6.598;2023-07-02T09:55:56;18.20;;;16.58;;
52186;SDS011;38161;53.020;6.598;2023-07-02T09:58:28;20.38;;;18.38;;
52186;SDS011;38161;53.020;6.598;2023-07-02T10:01:06;17.60;;;15.80;;
52186;SDS011;38161;53.020;6.598;2023-07-02T10:03:32;19.10;;;17.42;;
52186;SDS011;38161;53.020;6.598;2023-07-02T10:06:05;21.38;;;18.92;;
52186;SDS011;38161;53.020;6.598;2023-07-02T10:08:52;22.05;;;15.63;;
52186;SDS011;38161;53.020;6.598;2023-07-02T10:11:40;20.85;;;17.98;;
52186;SDS011;38161;53.020;6.598;2023-07-02T11:17:10;14.02;;;12.65;;
52186;SDS011;38161;53.020;6.598;2023-07-02T11:19:36;16.33;;;14.73;;
52186;SDS011;38161;53.020;6.598;2023-07-02T11:22:02;14.18;;;12.32;;
52186;SDS011;38161;53.020;6.598;2023-07-02T11:24:31;16.55;;;15.15;;
52186;SDS011;38161;53.020;6.598;2023-07-02T11:27:03;15.48;;;13.95;;
52186;SDS011;38161;53.020;6.598;2023-07-02T11:29:35;16.42;;;14.82;;
52186;SDS011;38161;53.020;6.598;2023-07-02T11:32:17;17.27;;;15.82;;
52186;SDS011;38161;53.020;6.598;2023-07-02T11:34:52;17.85;;;16.25;;
52186;SDS011;38161;53.020;6.598;2023-07-02T11:37:19;21.40;;;19.40;;
52186;SDS011;38161;53.020;6.598;2023-07-02T11:39:45;14.90;;;13.48;;
52186;SDS011;38161;53.020;6.598;2023-07-02T11:42:14;16.08;;;14.48;;
52186;SDS011;38161;53.020;6.598;2023-07-02T11:44:40;16.17;;;14.55;;
52186;SDS011;38161;53.020;6.598;2023-07-02T11:47:06;17.70;;;16.02;;
52186;SDS011;38161;53.020;6.598;2023-07-02T11:49:32;16.88;;;15.27;;
52186;SDS011;38161;53.020;6.598;2023-07-02T11:52:04;18.58;;;16.98;;
52186;SDS011;38161;53.020;6.598;2023-07-02T11:54:30;16.60;;;15.10;;
52186;SDS011;38161;53.020;6.598;2023-07-02T11:56:56;16.77;;;15.18;;
52186;SDS011;38161;53.020;6.598;2023-07-02T13:11:24;14.85;;;13.35;;
52186;SDS011;38161;53.020;6.598;2023-07-02T13:13:55;19.70;;;18.15;;
52186;SDS011;38161;53.020;6.598;2023-07-02T13:16:21;16.55;;;15.13;;
52186;SDS011;38161;53.020;6.598;2023-07-02T13:18:47;15.80;;;14.48;;
52186;SDS011;38161;53.020;6.598;2023-07-02T13:21:13;15.25;;;13.85;;
52186;SDS011;38161;53.020;6.598;2023-07-02T13:23:39;18.15;;;16.40;;
52186;SDS011;38161;53.020;6.598;2023-07-02T13:28:34;15.32;;;12.52;;
52186;SDS011;38161;53.020;6.598;2023-07-02T13:30:59;16.40;;;14.60;;
52186;SDS011;38161;53.020;6.598;2023-07-02T13:33:25;17.90;;;14.68;;
52186;SDS011;38161;53.020;6.598;2023-07-02T13:35:54;16.77;;;14.95;;
52186;SDS011;38161;53.020;6.598;2023-07-02T13:38:20;17.42;;;15.75;;
52186;SDS011;38161;53.020;6.598;2023-07-02T13:40:48;17.48;;;15.68;;
52186;SDS011;38161;53.020;6.598;2023-07-02T13:50:38;24.38;;;16.10;;
52186;SDS011;38161;53.020;6.598;2023-07-02T13:58:18;14.45;;;12.95;;
52186;SDS011;38161;53.020;6.598;2023-07-02T14:24:29;12.87;;;10.70;;
52186;SDS011;38161;53.020;6.598;2023-07-02T14:29:21;15.48;;;9.80;;
52186;SDS011;38161;53.020;6.598;2023-07-02T14:31:49;12.20;;;10.93;;
52186;SDS011;38161;53.020;6.598;2023-07-02T14:34:14;16.83;;;11.85;;
52186;SDS011;38161;53.020;6.598;2023-07-02T14:36:40;13.10;;;11.70;;
52186;SDS011;38161;53.020;6.598;2023-07-02T14:39:06;15.10;;;11.15;;
52186;SDS011;38161;53.020;6.598;2023-07-02T14:41:32;12.93;;;11.23;;
52186;SDS011;38161;53.020;6.598;2023-07-02T14:44:01;13.50;;;12.10;;
52186;SDS011;38161;53.020;6.598;2023-07-02T14:46:28;15.70;;;12.70;;
52186;SDS011;38161;53.020;6.598;2023-07-02T14:48:54;17.67;;;11.85;;
52186;SDS011;38161;53.020;6.598;2023-07-02T14:51:20;13.73;;;12.15;;
52186;SDS011;38161;53.020;6.598;2023-07-02T14:53:46;15.35;;;12.32;;
52186;SDS011;38161;53.020;6.598;2023-07-02T14:56:12;21.02;;;12.77;;
52186;SDS011;38161;53.020;6.598;2023-07-02T14:58:37;13.65;;;12.07;;
52186;SDS011;38161;53.020;6.598;2023-07-02T15:01:03;13.85;;;12.20;;
52186;SDS011;38161;53.020;6.598;2023-07-02T15:03:31;14.63;;;11.93;;
52186;SDS011;38161;53.020;6.598;2023-07-02T15:06:08;14.38;;;12.80;;
52186;SDS011;38161;53.020;6.598;2023-07-02T15:08:38;14.25;;;11.70;;
52186;SDS011;38161;53.020;6.598;2023-07-02T15:11:04;12.48;;;11.23;;
52186;SDS011;38161;53.020;6.598;2023-07-02T15:13:31;12.57;;;11.43;;
52186;SDS011;38161;53.020;6.598;2023-07-02T15:15:57;12.98;;;10.77;;
52186;SDS011;38161;53.020;6.598;2023-07-02T15:18:23;82.07;;;18.60;;
52186;SDS011;38161;53.020;6.598;2023-07-02T15:20:50;14.63;;;12.23;;
52186;SDS011;38161;53.020;6.598;2023-07-02T15:23:19;12.85;;;11.27;;
52186;SDS011;38161;53.020;6.598;2023-07-02T15:25:52;11.55;;;10.32;;
52186;SDS011;38161;53.020;6.598;2023-07-02T15:28:20;13.50;;;10.88;;
52186;SDS011;38161;53.020;6.598;2023-07-02T15:30:56;16.00;;;12.13;;
52186;SDS011;38161;53.020;6.598;2023-07-02T15:33:24;11.20;;;10.10;;
52186;SDS011;38161;53.020;6.598;2023-07-02T15:35:53;13.38;;;11.05;;
52186;SDS011;38161;53.020;6.598;2023-07-02T15:38:19;12.02;;;10.93;;
52186;SDS011;38161;53.020;6.598;2023-07-02T15:40:47;13.43;;;10.57;;
52186;SDS011;38161;53.020;6.598;2023-07-02T15:43:14;13.60;;;11.38;;
52186;SDS011;38161;53.020;6.598;2023-07-02T15:45:40;13.23;;;11.65;;
52186;SDS011;38161;53.020;6.598;2023-07-02T15:48:06;12.13;;;10.32;;
52186;SDS011;38161;53.020;6.598;2023-07-02T15:50:33;16.92;;;10.73;;
52186;SDS011;38161;53.020;6.598;2023-07-02T15:52:59;12.23;;;10.48;;
52186;SDS011;38161;53.020;6.598;2023-07-02T15:55:25;12.40;;;10.95;;
52186;SDS011;38161;53.020;6.598;2023-07-02T15:57:51;13.18;;;11.73;;
52186;SDS011;38161;53.020;6.598;2023-07-02T16:00:17;13.10;;;11.23;;
52186;SDS011;38161;53.020;6.598;2023-07-02T16:02:48;12.63;;;11.35;;
52186;SDS011;38161;53.020;6.598;2023-07-02T16:05:14;12.25;;;10.30;;
52186;SDS011;38161;53.020;6.598;2023-07-02T16:07:39;15.95;;;10.18;;
52186;SDS011;38161;53.020;6.598;2023-07-02T16:10:07;12.57;;;10.93;;
52186;SDS011;38161;53.020;6.598;2023-07-02T16:12:34;11.98;;;10.10;;
52186;SDS011;38161;53.020;6.598;2023-07-02T16:15:00;11.40;;;10.25;;
52186;SDS011;38161;53.020;6.598;2023-07-02T16:17:26;13.93;;;10.68;;
52186;SDS011;38161;53.020;6.598;2023-07-02T16:19:52;12.40;;;10.50;;
52186;SDS011;38161;53.020;6.598;2023-07-02T16:22:18;12.10;;;10.57;;
52186;SDS011;38161;53.020;6.598;2023-07-02T16:24:44;11.05;;;9.98;;
52186;SDS011;38161;53.020;6.598;2023-07-02T16:27:10;12.32;;;10.35;;
52186;SDS011;38161;53.020;6.598;2023-07-02T16:29:38;11.50;;;10.40;;
52186;SDS011;38161;53.020;6.598;2023-07-02T16:32:04;13.05;;;10.80;;
52186;SDS011;38161;53.020;6.598;2023-07-02T16:34:34;12.73;;;11.32;;
52186;SDS011;38161;53.020;6.598;2023-07-02T16:36:59;15.90;;;11.60;;
52186;SDS011;38161;53.020;6.598;2023-07-02T16:39:25;13.27;;;10.18;;
52186;SDS011;38161;53.020;6.598;2023-07-02T16:41:51;11.82;;;10.52;;
52186;SDS011;38161;53.020;6.598;2023-07-02T16:46:48;13.77;;;10.85;;
52186;SDS011;38161;53.020;6.598;2023-07-02T16:49:16;12.18;;;10.93;;
52186;SDS011;38161;53.020;6.598;2023-07-02T16:51:43;19.15;;;12.25;;
52186;SDS011;38161;53.020;6.598;2023-07-02T16:54:17;15.75;;;14.27;;
52186;SDS011;38161;53.020;6.598;2023-07-02T16:56:53;11.20;;;9.60;;
52186;SDS011;38161;53.020;6.598;2023-07-02T16:59:21;13.88;;;11.45;;
52186;SDS011;38161;53.020;6.598;2023-07-02T17:01:50;13.70;;;11.02;;
52186;SDS011;38161;53.020;6.598;2023-07-02T17:04:18;13.40;;;10.40;;
52186;SDS011;38161;53.020;6.598;2023-07-02T17:06:58;15.90;;;11.15;;
52186;SDS011;38161;53.020;6.598;2023-07-02T17:09:34;14.73;;;10.52;;
52186;SDS011;38161;53.020;6.598;2023-07-02T17:12:05;14.73;;;11.45;;
52186;SDS011;38161;53.020;6.598;2023-07-02T17:14:35;11.18;;;10.02;;
52186;SDS011;38161;53.020;6.598;2023-07-02T17:17:10;14.30;;;10.70;;
52186;SDS011;38161;53.020;6.598;2023-07-02T17:19:45;12.43;;;10.05;;
52186;SDS011;38161;53.020;6.598;2023-07-02T17:22:14;12.30;;;10.40;;
52186;SDS011;38161;53.020;6.598;2023-07-02T17:24:45;12.50;;;10.48;;
52186;SDS011;38161;53.020;6.598;2023-07-02T17:27:14;13.63;;;11.63;;
52186;SDS011;38161;53.020;6.598;2023-07-02T17:29:42;12.00;;;10.80;;
52186;SDS011;38161;53.020;6.598;2023-07-02T17:32:14;13.57;;;10.80;;
52186;SDS011;38161;53.020;6.598;2023-07-02T17:34:40;12.52;;;10.93;;
52186;SDS011;38161;53.020;6.598;2023-07-02T17:37:07;13.15;;;11.00;;
52186;SDS011;38161;53.020;6.598;2023-07-02T17:39:34;13.82;;;11.35;;
52186;SDS011;38161;53.020;6.598;2023-07-02T17:42:01;13.05;;;11.05;;
52186;SDS011;38161;53.020;6.598;2023-07-02T17:44:30;13.30;;;10.63;;
52186;SDS011;38161;53.020;6.598;2023-07-02T17:47:02;14.93;;;10.68;;
52186;SDS011;38161;53.020;6.598;2023-07-02T17:49:32;11.00;;;9.85;;
52186;SDS011;38161;53.020;6.598;2023-07-02T17:52:00;15.05;;;11.13;;
52186;SDS011;38161;53.020;6.598;2023-07-02T17:54:31;14.23;;;11.02;;